sensor_id;sensor_type;location;lat;lon;timestamp;temperature;humidity
10441;DHT22;5268;49.346;9.522;2023-04-05T03:05:39;0.60;99.90
10441;DHT22;5268;49.346;9.522;2023-04-05T03:10:43;0.50;99.90
10441;DHT22;5268;49.346;9.522;2023-04-05T03:15:45;0.40;99.90
10441;DHT22;5268;49.346;9.522;2023-04-05T03:20:48;0.40;99.90
10441;DHT22;5268;49.346;9.522;2023-04-05T03:25:52;0.20;99.90
10441;DHT22;5268;49.346;9.522;2023-04-05T03:30:55;0.20;99.90
10441;DHT22;5268;49.346;9.522;2023-04-05T03:35:58;0.30;99.90
10441;DHT22;5268;49.346;9.522;2023-04-05T03:41:01;0.30;99.90
10441;DHT22;5268;49.346;9.522;2023-04-05T03:46:03;0.20;99.90
10441;DHT22;5268;49.346;9.522;2023-04-05T03:51:06;0.20;99.90
10441;DHT22;5268;49.346;9.522;2023-04-05T03:56:09;0.10;99.90
10441;DHT22;5268;49.346;9.522;2023-04-05T04:01:11;0.10;99.90
10441;DHT22;5268;49.346;9.522;2023-04-05T04:06:14;0.00;99.90
10441;DHT22;5268;49.346;9.522;2023-04-05T04:11:18;0.10;99.90
10441;DHT22;5268;49.346;9.522;2023-04-05T04:16:20;0.00;99.90
10441;DHT22;5268;49.346;9.522;2023-04-05T04:21:23;-0.10;99.90
10441;DHT22;5268;49.346;9.522;2023-04-05T04:26:25;-0.10;99.90
10441;DHT22;5268;49.346;9.522;2023-04-05T04:31:28;-0.10;99.90
10441;DHT22;5268;49.346;9.522;2023-04-05T04:36:34;-0.10;99.90
10441;DHT22;5268;49.346;9.522;2023-04-05T04:41:38;-0.20;99.90
10441;DHT22;5268;49.346;9.522;2023-04-05T04:46:46;-0.20;99.90
10441;DHT22;5268;49.346;9.522;2023-04-05T04:51:55;-0.30;99.90
10441;DHT22;5268;49.346;9.522;2023-04-05T04:56:59;-0.40;99.90
10441;DHT22;5268;49.346;9.522;2023-04-05T05:02:01;-0.40;99.90
10441;DHT22;5268;49.346;9.522;2023-04-05T05:07:04;-0.40;99.90
10441;DHT22;5268;49.346;9.522;2023-04-05T05:12:06;-0.40;99.90
10441;DHT22;5268;49.346;9.522;2023-04-05T05:17:08;-0.40;99.90
10441;DHT22;5268;49.346;9.522;2023-04-05T05:22:12;-0.30;99.90
10441;DHT22;5268;49.346;9.522;2023-04-05T05:27:14;-0.30;99.90
10441;DHT22;5268;49.346;9.522;2023-04-05T05:32:16;-0.40;99.90
10441;DHT22;5268;49.346;9.522;2023-04-05T05:37:21;-0.40;99.90
10441;DHT22;5268;49.346;9.522;2023-04-05T05:42:23;-0.30;99.90
10441;DHT22;5268;49.346;9.522;2023-04-05T05:47:25;-0.20;99.90
10441;DHT22;5268;49.346;9.522;2023-04-05T05:52:28;-0.30;99.90
10441;DHT22;5268;49.346;9.522;2023-04-05T05:57:30;-0.20;99.90
10441;DHT22;5268;49.346;9.522;2023-04-05T06:02:32;-0.20;99.90
10441;DHT22;5268;49.346;9.522;2023-04-05T06:07:36;-0.20;99.90
10441;DHT22;5268;49.346;9.522;2023-04-05T06:12:38;-0.20;99.90
10441;DHT22;5268;49.346;9.522;2023-04-05T06:17:40;-0.20;99.90
10441;DHT22;5268;49.346;9.522;2023-04-05T06:22:43;-0.10;99.90
10441;DHT22;5268;49.346;9.522;2023-04-05T06:27:45;0.00;99.90
10441;DHT22;5268;49.346;9.522;2023-04-05T06:32:47;0.30;99.90
10441;DHT22;5268;49.346;9.522;2023-04-05T06:37:55;0.90;99.90
10441;DHT22;5268;49.346;9.522;2023-04-05T06:42:57;1.40;99.90
10441;DHT22;5268;49.346;9.522;2023-04-05T06:47:59;1.90;99.90
10441;DHT22;5268;49.346;9.522;2023-04-05T06:53:03;2.10;99.90
10441;DHT22;5268;49.346;9.522;2023-04-05T06:58:05;2.20;99.90
10441;DHT22;5268;49.346;9.522;2023-04-05T07:03:07;2.20;99.90
10441;DHT22;5268;49.346;9.522;2023-04-05T07:08:11;2.40;99.90
10441;DHT22;5268;49.346;9.522;2023-04-05T07:13:13;2.80;99.90
10441;DHT22;5268;49.346;9.522;2023-04-05T07:23:27;3.60;99.90
10441;DHT22;5268;49.346;9.522;2023-04-05T07:28:29;4.00;99.90
10441;DHT22;5268;49.346;9.522;2023-04-05T07:33:32;4.20;99.90
10441;DHT22;5268;49.346;9.522;2023-04-05T07:38:36;4.50;99.90
10441;DHT22;5268;49.346;9.522;2023-04-05T07:43:38;5.00;99.90
10441;DHT22;5268;49.346;9.522;2023-04-05T07:48:40;5.20;99.90
10441;DHT22;5268;49.346;9.522;2023-04-05T07:53:43;5.50;99.90
10441;DHT22;5268;49.346;9.522;2023-04-05T07:58:45;5.70;99.90
10441;DHT22;5268;49.346;9.522;2023-04-05T08:03:49;6.20;99.90
10441;DHT22;5268;49.346;9.522;2023-04-05T08:08:53;6.40;99.90
10441;DHT22;5268;49.346;9.522;2023-04-05T08:13:55;6.40;99.90
10441;DHT22;5268;49.346;9.522;2023-04-05T08:18:57;6.80;99.90
10441;DHT22;5268;49.346;9.522;2023-04-05T08:24:00;7.10;99.90
10441;DHT22;5268;49.346;9.522;2023-04-05T08:29:02;7.70;99.90
10441;DHT22;5268;49.346;9.522;2023-04-05T08:34:04;8.10;99.90
10441;DHT22;5268;49.346;9.522;2023-04-05T08:39:09;8.40;99.90
10441;DHT22;5268;49.346;9.522;2023-04-05T08:44:11;8.40;99.90
10441;DHT22;5268;49.346;9.522;2023-04-05T08:49:14;8.60;99.90
10441;DHT22;5268;49.346;9.522;2023-04-05T08:54:17;8.90;99.90
10441;DHT22;5268;49.346;9.522;2023-04-05T08:59:20;9.10;99.90
10441;DHT22;5268;49.346;9.522;2023-04-05T09:04:23;9.40;99.90
10441;DHT22;5268;49.346;9.522;2023-04-05T09:09:31;9.80;99.90
10441;DHT22;5268;49.346;9.522;2023-04-05T09:14:35;10.20;99.90
10441;DHT22;5268;49.346;9.522;2023-04-05T09:19:38;10.40;99.90
10441;DHT22;5268;49.346;9.522;2023-04-05T09:24:43;10.50;99.90
10441;DHT22;5268;49.346;9.522;2023-04-05T09:29:47;10.40;98.80
10441;DHT22;5268;49.346;9.522;2023-04-05T09:34:52;10.50;99.90
10441;DHT22;5268;49.346;9.522;2023-04-05T09:40:04;10.20;95.20
10441;DHT22;5268;49.346;9.522;2023-04-05T09:45:11;10.30;95.50
10441;DHT22;5268;49.346;9.522;2023-04-05T09:50:18;10.70;99.90
10441;DHT22;5268;49.346;9.522;2023-04-05T09:55:28;11.20;99.90
10441;DHT22;5268;49.346;9.522;2023-04-05T10:00:30;11.20;93.90
10441;DHT22;5268;49.346;9.522;2023-04-05T10:05:33;11.20;99.20
10441;DHT22;5268;49.346;9.522;2023-04-05T10:10:45;11.20;96.20
10441;DHT22;5268;49.346;9.522;2023-04-05T10:15:52;11.50;99.90
10441;DHT22;5268;49.346;9.522;2023-04-05T10:20:59;11.30;99.50
10441;DHT22;5268;49.346;9.522;2023-04-05T10:26:09;11.40;99.90
10441;DHT22;5268;49.346;9.522;2023-04-05T10:31:21;11.80;99.90
10441;DHT22;5268;49.346;9.522;2023-04-05T10:36:30;12.30;99.90
10441;DHT22;5268;49.346;9.522;2023-04-05T10:41:48;12.70;99.90
10441;DHT22;5268;49.346;9.522;2023-04-05T10:46:53;13.10;99.90
10441;DHT22;5268;49.346;9.522;2023-04-05T10:51:58;13.40;99.90
10441;DHT22;5268;49.346;9.522;2023-04-05T10:57:02;13.30;97.60
10441;DHT22;5268;49.346;9.522;2023-04-05T11:02:13;13.30;96.70
10441;DHT22;5268;49.346;9.522;2023-04-05T11:07:19;13.20;99.90
10441;DHT22;5268;49.346;9.522;2023-04-05T11:18:03;13.20;95.10
10441;DHT22;5268;49.346;9.522;2023-04-05T11:23:05;13.10;99.90
10441;DHT22;5268;49.346;9.522;2023-04-05T11:28:08;13.10;97.80
10441;DHT22;5268;49.346;9.522;2023-04-05T11:33:11;13.10;94.60
10441;DHT22;5268;49.346;9.522;2023-04-05T11:38:33;13.20;99.90
10441;DHT22;5268;49.346;9.522;2023-04-05T11:43:36;13.40;98.00
10441;DHT22;5268;49.346;9.522;2023-04-05T11:48:40;13.30;99.90
10441;DHT22;5268;49.346;9.522;2023-04-05T11:53:45;13.40;99.90
10441;DHT22;5268;49.346;9.522;2023-04-05T11:58:48;13.70;99.90
10441;DHT22;5268;49.346;9.522;2023-04-05T12:03:54;13.90;99.90
10441;DHT22;5268;49.346;9.522;2023-04-05T12:08:56;14.00;98.30
10441;DHT22;5268;49.346;9.522;2023-04-05T12:14:00;13.80;98.20
10441;DHT22;5268;49.346;9.522;2023-04-05T12:19:03;13.80;99.90
10441;DHT22;5268;49.346;9.522;2023-04-05T12:24:06;13.80;99.80
10441;DHT22;5268;49.346;9.522;2023-04-05T12:29:08;13.60;99.20
10441;DHT22;5268;49.346;9.522;2023-04-05T12:34:12;13.50;99.90
10441;DHT22;5268;49.346;9.522;2023-04-05T12:39:15;13.40;99.90
10441;DHT22;5268;49.346;9.522;2023-04-05T12:44:27;13.50;99.90
10441;DHT22;5268;49.346;9.522;2023-04-05T12:49:35;13.60;99.90
10441;DHT22;5268;49.346;9.522;2023-04-05T12:54:38;13.60;99.90
10441;DHT22;5268;49.346;9.522;2023-04-05T12:59:40;13.50;99.90
10441;DHT22;5268;49.346;9.522;2023-04-05T13:04:43;13.60;99.90
10441;DHT22;5268;49.346;9.522;2023-04-05T13:09:45;13.50;99.70
10441;DHT22;5268;49.346;9.522;2023-04-05T13:14:47;13.30;99.90
10441;DHT22;5268;49.346;9.522;2023-04-05T13:19:50;12.60;94.90
10441;DHT22;5268;49.346;9.522;2023-04-05T13:24:52;12.70;99.90
10441;DHT22;5268;49.346;9.522;2023-04-05T13:29:54;12.50;95.50
10441;DHT22;5268;49.346;9.522;2023-04-05T13:34:58;12.30;97.20
10441;DHT22;5268;49.346;9.522;2023-04-05T13:40:00;12.30;98.90
10441;DHT22;5268;49.346;9.522;2023-04-05T13:45:02;12.20;97.10
10441;DHT22;5268;49.346;9.522;2023-04-05T13:50:07;12.20;94.40
10441;DHT22;5268;49.346;9.522;2023-04-05T13:55:09;11.80;86.90
10441;DHT22;5268;49.346;9.522;2023-04-05T14:00:13;11.80;97.40
10441;DHT22;5268;49.346;9.522;2023-04-05T14:05:16;11.90;97.70
10441;DHT22;5268;49.346;9.522;2023-04-05T14:10:18;12.00;97.40
10441;DHT22;5268;49.346;9.522;2023-04-05T14:15:21;12.10;97.60
10441;DHT22;5268;49.346;9.522;2023-04-05T14:20:25;12.30;97.80
10441;DHT22;5268;49.346;9.522;2023-04-05T14:25:27;12.10;93.80
10441;DHT22;5268;49.346;9.522;2023-04-05T14:30:29;12.20;99.10
10441;DHT22;5268;49.346;9.522;2023-04-05T14:35:33;12.10;98.20
10441;DHT22;5268;49.346;9.522;2023-04-05T14:40:35;12.20;98.70
10441;DHT22;5268;49.346;9.522;2023-04-05T14:45:37;12.30;99.00
10441;DHT22;5268;49.346;9.522;2023-04-05T14:50:41;12.50;98.40
10441;DHT22;5268;49.346;9.522;2023-04-05T14:55:43;12.60;99.40
10441;DHT22;5268;49.346;9.522;2023-04-05T15:00:47;12.50;93.20
10441;DHT22;5268;49.346;9.522;2023-04-05T15:05:51;12.40;95.80
10441;DHT22;5268;49.346;9.522;2023-04-05T15:10:53;12.20;97.40
10441;DHT22;5268;49.346;9.522;2023-04-05T15:15:55;12.30;98.00
10441;DHT22;5268;49.346;9.522;2023-04-05T15:21:02;12.40;98.50
10441;DHT22;5268;49.346;9.522;2023-04-05T15:26:04;12.50;98.70
10441;DHT22;5268;49.346;9.522;2023-04-05T15:31:06;12.50;98.00
10441;DHT22;5268;49.346;9.522;2023-04-05T15:36:09;12.40;92.20
10441;DHT22;5268;49.346;9.522;2023-04-05T15:41:12;12.20;98.00
10441;DHT22;5268;49.346;9.522;2023-04-05T15:46:14;12.20;98.60
10441;DHT22;5268;49.346;9.522;2023-04-05T15:51:17;12.10;99.40
10441;DHT22;5268;49.346;9.522;2023-04-05T15:56:19;12.00;99.30
10441;DHT22;5268;49.346;9.522;2023-04-05T16:01:21;11.90;99.30
10441;DHT22;5268;49.346;9.522;2023-04-05T16:06:25;11.80;99.60
10441;DHT22;5268;49.346;9.522;2023-04-05T16:11:29;11.70;99.50
10441;DHT22;5268;49.346;9.522;2023-04-05T16:16:31;11.60;99.90
10441;DHT22;5268;49.346;9.522;2023-04-05T16:21:34;11.60;97.50
10441;DHT22;5268;49.346;9.522;2023-04-05T16:26:36;11.50;96.30
10441;DHT22;5268;49.346;9.522;2023-04-05T16:31:38;11.40;95.90
10441;DHT22;5268;49.346;9.522;2023-04-05T16:36:42;11.30;97.80
10441;DHT22;5268;49.346;9.522;2023-04-05T16:41:44;11.20;98.50
10441;DHT22;5268;49.346;9.522;2023-04-05T16:46:46;11.20;99.10
10441;DHT22;5268;49.346;9.522;2023-04-05T16:51:49;11.20;99.40
10441;DHT22;5268;49.346;9.522;2023-04-05T16:56:51;11.20;98.80
10441;DHT22;5268;49.346;9.522;2023-04-05T17:01:53;10.90;85.10
10441;DHT22;5268;49.346;9.522;2023-04-05T17:06:57;10.70;94.20
10441;DHT22;5268;49.346;9.522;2023-04-05T17:11:59;10.60;92.00
10441;DHT22;5268;49.346;9.522;2023-04-05T17:17:01;10.60;97.40
10441;DHT22;5268;49.346;9.522;2023-04-05T17:22:04;10.60;97.90
10441;DHT22;5268;49.346;9.522;2023-04-05T17:27:06;10.50;98.40
10441;DHT22;5268;49.346;9.522;2023-04-05T17:32:08;10.40;98.50
10441;DHT22;5268;49.346;9.522;2023-04-05T17:37:11;10.30;98.40
10441;DHT22;5268;49.346;9.522;2023-04-05T17:42:13;10.20;98.70
10441;DHT22;5268;49.346;9.522;2023-04-05T17:47:16;10.00;98.80
10441;DHT22;5268;49.346;9.522;2023-04-05T17:52:20;9.90;98.70
10441;DHT22;5268;49.346;9.522;2023-04-05T17:57:22;9.80;98.10
10441;DHT22;5268;49.346;9.522;2023-04-05T18:02:24;9.60;98.70
10441;DHT22;5268;49.346;9.522;2023-04-05T18:07:28;9.50;98.70
10441;DHT22;5268;49.346;9.522;2023-04-05T18:12:31;9.30;97.20
10441;DHT22;5268;49.346;9.522;2023-04-05T18:17:33;9.10;98.30
10441;DHT22;5268;49.346;9.522;2023-04-05T18:22:38;9.00;98.60
10441;DHT22;5268;49.346;9.522;2023-04-05T18:27:41;8.80;98.70
10441;DHT22;5268;49.346;9.522;2023-04-05T18:32:43;8.70;98.60
10441;DHT22;5268;49.346;9.522;2023-04-05T18:37:46;8.60;98.60
10441;DHT22;5268;49.346;9.522;2023-04-05T18:42:48;8.50;98.50
10441;DHT22;5268;49.346;9.522;2023-04-05T18:47:50;8.40;98.20
10441;DHT22;5268;49.346;9.522;2023-04-05T18:52:54;8.20;98.30
10441;DHT22;5268;49.346;9.522;2023-04-05T18:57:56;8.10;98.40
10441;DHT22;5268;49.346;9.522;2023-04-05T19:02:58;7.90;98.30
10441;DHT22;5268;49.346;9.522;2023-04-05T19:08:02;7.80;98.10
10441;DHT22;5268;49.346;9.522;2023-04-05T19:13:04;7.70;98.30
10441;DHT22;5268;49.346;9.522;2023-04-05T19:18:06;7.50;98.20
10441;DHT22;5268;49.346;9.522;2023-04-05T19:23:10;7.40;98.20
10441;DHT22;5268;49.346;9.522;2023-04-05T19:28:11;7.30;98.20
10441;DHT22;5268;49.346;9.522;2023-04-05T19:33:13;7.10;98.20
10441;DHT22;5268;49.346;9.522;2023-04-05T19:38:19;7.00;98.00
10441;DHT22;5268;49.346;9.522;2023-04-05T19:43:22;6.90;98.20
10441;DHT22;5268;49.346;9.522;2023-04-05T19:48:36;6.70;98.20
10441;DHT22;5268;49.346;9.522;2023-04-05T19:53:42;6.60;98.10
10441;DHT22;5268;49.346;9.522;2023-04-05T19:58:44;6.50;98.20
10441;DHT22;5268;49.346;9.522;2023-04-05T20:03:47;6.30;98.30
10441;DHT22;5268;49.346;9.522;2023-04-05T20:08:50;6.20;98.20
10441;DHT22;5268;49.346;9.522;2023-04-05T20:13:56;6.10;98.20
10441;DHT22;5268;49.346;9.522;2023-04-05T20:19:01;6.00;98.20
10441;DHT22;5268;49.346;9.522;2023-04-05T20:24:07;5.90;98.20
10441;DHT22;5268;49.346;9.522;2023-04-05T20:29:09;5.70;98.20
10441;DHT22;5268;49.346;9.522;2023-04-05T20:34:20;5.70;98.10
10441;DHT22;5268;49.346;9.522;2023-04-05T20:39:27;5.50;98.10
10441;DHT22;5268;49.346;9.522;2023-04-05T20:44:29;5.40;98.10
10441;DHT22;5268;49.346;9.522;2023-04-05T20:49:31;5.30;98.30
10441;DHT22;5268;49.346;9.522;2023-04-05T20:54:34;5.20;98.00
10441;DHT22;5268;49.346;9.522;2023-04-05T20:59:36;5.10;98.30
10441;DHT22;5268;49.346;9.522;2023-04-05T21:04:38;4.90;98.60
10441;DHT22;5268;49.346;9.522;2023-04-05T21:09:42;4.90;97.90
10441;DHT22;5268;49.346;9.522;2023-04-05T21:14:44;4.70;98.00
10441;DHT22;5268;49.346;9.522;2023-04-05T21:19:46;4.70;98.10
10441;DHT22;5268;49.346;9.522;2023-04-05T21:24:50;4.60;98.20
10441;DHT22;5268;49.346;9.522;2023-04-05T21:29:52;4.60;98.10
10441;DHT22;5268;49.346;9.522;2023-04-05T21:34:54;4.40;98.20
10441;DHT22;5268;49.346;9.522;2023-04-05T21:39:57;4.40;98.20
10441;DHT22;5268;49.346;9.522;2023-04-05T21:45:01;4.30;98.10
10441;DHT22;5268;49.346;9.522;2023-04-05T21:50:04;4.20;98.20
